Time;durP1;ratioP1;P1;durP2;ratioP2;P2;SDS_P1;SDS_P2;PMS_P1;PMS_P2;Temp;Humidity;BMP_temperature;BMP_pressure;BME280_temperature;BME280_humidity;BME280_pressure;Samples;Min_cycle;Max_cycle;Signal;HPM_P1;HPM_P2
2022/01/26 00:05:47;;;;;;;;;;;5.80;99.90;;;;;;2081332;28;19913;-70
2022/01/26 00:06:21;;;;;;;;;;;5.80;99.90;;;;;;2081096;28;19916;-70
2022/01/26 00:07:22;;;;;;;;;;;5.80;99.90;;;;;;2072915;28;19916;-70
2022/01/26 00:08:25;;;;;;;;;;;5.80;99.90;;;;;;2075893;28;19909;-70
2022/01/26 00:09:26;;;;;;;;;;;5.80;99.90;;;;;;2080817;28;19920;-70
2022/01/26 00:10:27;;;;;;;;;;;5.80;99.90;;;;;;2080295;28;20413;-70
2022/01/26 00:11:30;;;;;;;;;;;5.80;99.90;;;;;;2074759;28;20285;-70
2022/01/26 00:12:31;;;;;;;;;;;5.70;99.90;;;;;;2081366;28;19909;-70
2022/01/26 00:13:31;;;;;;;;;;;5.80;99.90;;;;;;2081008;28;19909;-70
2022/01/26 00:14:32;;;;;;;;;;;5.70;99.90;;;;;;2079590;28;19917;-70
2022/01/26 00:15:32;;;;;;;;;;;5.70;99.90;;;;;;2081461;28;20004;-70
2022/01/26 00:16:41;;;;;;;;;;;5.70;99.90;;;;;;2080655;28;19909;-70
2022/01/26 00:17:41;;;;;;;;;;;5.70;99.90;;;;;;2081089;28;19917;-70
2022/01/26 00:18:42;;;;;;;;;;;5.70;99.90;;;;;;2080559;28;19913;-70
2022/01/26 00:20:59;;;;;;;;;;;5.70;99.90;;;;;;2081335;28;19920;-70
2022/01/26 00:22:00;;;;;;;;;;;5.70;99.90;;;;;;2078958;28;20008;-70
2022/01/26 00:24:10;;;;;;;;;;;5.70;99.90;;;;;;2081051;28;19913;-70
2022/01/26 00:26:36;;;;;;;;;;;5.60;99.90;;;;;;2081500;28;20742;-70
2022/01/26 00:27:53;;;;;;;;;;;5.60;99.90;;;;;;2080782;28;19909;-70
2022/01/26 00:29:11;;;;;;;;;;;5.60;99.90;;;;;;2080915;28;19913;-69
2022/01/26 00:39:31;;;;;;;;;;;5.40;99.90;;;;;;2078878;28;20008;-69
2022/01/26 00:40:39;;;;;;;;;;;5.40;99.90;;;;;;2080643;28;19913;-70
2022/01/26 00:41:40;;;;;;;;;;;5.40;99.90;;;;;;2080901;28;19912;-70
2022/01/26 00:42:43;;;;;;;;;;;5.40;99.90;;;;;;2080455;28;19924;-70
2022/01/26 00:43:51;;;;;;;;;;;5.40;99.90;;;;;;2080768;28;20348;-70
2022/01/26 00:44:52;;;;;;;;;;;5.40;99.90;;;;;;2078136;28;19966;-70
2022/01/26 00:45:56;;;;;;;;;;;5.40;99.90;;;;;;2077096;28;19963;-70
2022/01/26 00:46:58;;;;;;;;;;;5.40;99.90;;;;;;2079711;28;19917;-70
2022/01/26 00:48:03;;;;;;;;;;;5.40;99.90;;;;;;2080919;28;19920;-70
2022/01/26 00:49:04;;;;;;;;;;;5.40;99.90;;;;;;2078983;28;19939;-70
2022/01/26 00:50:09;;;;;;;;;;;5.40;99.90;;;;;;2071199;28;19993;-69
2022/01/26 00:51:10;;;;;;;;;;;5.40;99.90;;;;;;2075429;28;19921;-69
2022/01/26 00:52:14;;;;;;;;;;;5.40;99.90;;;;;;2074322;28;19913;-70
2022/01/26 00:53:15;;;;;;;;;;;5.40;99.90;;;;;;2072796;28;19917;-70
2022/01/26 00:54:15;;;;;;;;;;;5.40;99.90;;;;;;2079322;28;20365;-70
2022/01/26 00:55:16;;;;;;;;;;;5.40;99.90;;;;;;2079921;28;19940;-70
2022/01/26 00:56:17;;;;;;;;;;;5.40;99.90;;;;;;2078700;28;19916;-70
2022/01/26 00:57:17;;;;;;;;;;;5.40;99.90;;;;;;2080177;28;19916;-70
2022/01/26 00:58:18;;;;;;;;;;;5.40;99.90;;;;;;2083183;28;19909;-70
2022/01/26 00:59:19;;;;;;;;;;;5.40;99.90;;;;;;2079634;28;20428;-70
2022/01/26 01:00:21;;;;;;;;;;;5.40;99.90;;;;;;2088018;28;19913;-70
2022/01/26 01:01:22;;;;;;;;;;;5.40;99.90;;;;;;2080376;28;19924;-70
2022/01/26 01:02:23;;;;;;;;;;;5.40;99.90;;;;;;2080473;28;19916;-70
2022/01/26 01:03:23;;;;;;;;;;;5.40;99.90;;;;;;2080517;28;19909;-70
2022/01/26 01:04:24;;;;;;;;;;;5.40;99.90;;;;;;2079822;28;19913;-70
2022/01/26 01:05:32;;;;;;;;;;;5.40;99.90;;;;;;2080835;28;19970;-70
2022/01/26 01:06:41;;;;;;;;;;;5.40;99.90;;;;;;2080480;28;19940;-74
2022/01/26 01:07:43;;;;;;;;;;;5.40;99.90;;;;;;2073358;28;19952;-70
2022/01/26 01:08:46;;;;;;;;;;;5.40;99.90;;;;;;2078919;28;19909;-70
2022/01/26 01:09:47;;;;;;;;;;;5.40;99.90;;;;;;2078202;28;19921;-70
2022/01/26 01:10:50;;;;;;;;;;;5.40;99.90;;;;;;2082088;28;19991;-70
2022/01/26 01:11:55;;;;;;;;;;;5.40;99.90;;;;;;2081372;28;19913;-70
2022/01/26 01:12:58;;;;;;;;;;;5.40;99.90;;;;;;2081105;28;19913;-70
2022/01/26 01:13:58;;;;;;;;;;;5.50;99.90;;;;;;2081522;28;19913;-70
2022/01/26 01:14:59;;;;;;;;;;;5.50;99.90;;;;;;2080411;28;19917;-69
2022/01/26 01:16:00;;;;;;;;;;;5.50;99.90;;;;;;2082129;28;19909;-70
2022/01/26 01:17:03;;;;;;;;;;;5.50;99.90;;;;;;2081786;28;20281;-70
2022/01/26 01:18:13;;;;;;;;;;;5.50;99.90;;;;;;2081983;28;19909;-70
2022/01/26 01:19:41;;;;;;;;;;;5.40;99.90;;;;;;2073757;28;19920;-70
2022/01/26 01:27:08;;;;;;;;;;;5.50;99.90;;;;;;2074113;28;19973;-70
2022/01/26 01:29:34;;;;;;;;;;;5.40;99.90;;;;;;2080885;28;19921;-70
2022/01/26 01:30:40;;;;;;;;;;;5.40;99.90;;;;;;2073796;28;19916;-70
2022/01/26 01:33:20;;;;;;;;;;;5.40;99.90;;;;;;2081948;28;20474;-70
2022/01/26 01:34:11;;;;;;;;;;;5.40;99.90;;;;;;2072816;28;19913;-70
2022/01/26 01:35:13;;;;;;;;;;;5.40;99.90;;;;;;2081768;28;19952;-70
2022/01/26 01:36:13;;;;;;;;;;;5.40;99.90;;;;;;2081833;28;19916;-70
2022/01/26 01:37:15;;;;;;;;;;;5.40;99.90;;;;;;2081951;28;19913;-69
2022/01/26 01:38:18;;;;;;;;;;;5.50;99.90;;;;;;2081465;28;20412;-69
2022/01/26 01:39:19;;;;;;;;;;;5.50;99.90;;;;;;2081703;28;19909;-70
2022/01/26 01:40:19;;;;;;;;;;;5.50;99.90;;;;;;2080119;28;19921;-70
2022/01/26 01:41:20;;;;;;;;;;;5.50;99.90;;;;;;2081950;28;19996;-70
2022/01/26 01:42:21;;;;;;;;;;;5.50;99.90;;;;;;2078992;28;19923;-70
2022/01/26 01:43:22;;;;;;;;;;;5.50;99.90;;;;;;2081100;28;20447;-70
2022/01/26 01:44:23;;;;;;;;;;;5.60;99.90;;;;;;2079544;28;19917;-70
2022/01/26 01:45:37;;;;;;;;;;;5.60;99.90;;;;;;2077995;28;19910;-70
2022/01/26 01:46:40;;;;;;;;;;;5.60;99.90;;;;;;2081737;28;19913;-70
2022/01/26 01:47:40;;;;;;;;;;;5.50;99.90;;;;;;2081879;28;19909;-70
2022/01/26 01:48:40;;;;;;;;;;;5.60;99.90;;;;;;2081569;28;19910;-70
2022/01/26 01:49:41;;;;;;;;;;;5.60;99.90;;;;;;2081150;28;19972;-70
2022/01/26 01:50:42;;;;;;;;;;;5.60;99.90;;;;;;2079127;28;20380;-70
2022/01/26 01:51:49;;;;;;;;;;;5.60;99.90;;;;;;2080223;28;19913;-70
2022/01/26 01:52:50;;;;;;;;;;;5.60;99.90;;;;;;2073697;28;20401;-70
2022/01/26 01:53:50;;;;;;;;;;;5.60;99.90;;;;;;2077141;28;19971;-70
2022/01/26 01:54:54;;;;;;;;;;;5.70;99.90;;;;;;2081478;28;19917;-70
2022/01/26 01:55:54;;;;;;;;;;;5.70;99.90;;;;;;2081307;28;19944;-70
2022/01/26 01:56:57;;;;;;;;;;;5.70;99.90;;;;;;2081606;28;19956;-70
2022/01/26 01:57:58;;;;;;;;;;;5.60;99.90;;;;;;2077533;28;19916;-70
2022/01/26 01:58:59;;;;;;;;;;;5.60;99.90;;;;;;2081683;28;19909;-70
2022/01/26 01:59:59;;;;;;;;;;;5.60;99.90;;;;;;2080886;28;19940;-70
2022/01/26 02:01:00;;;;;;;;;;;5.60;99.90;;;;;;2080756;28;19917;-70
2022/01/26 02:02:01;;;;;;;;;;;5.60;99.90;;;;;;2081514;28;19909;-70
2022/01/26 02:03:02;;;;;;;;;;;5.50;99.90;;;;;;2081457;28;19924;-70
2022/01/26 02:04:03;;;;;;;;;;;5.50;99.90;;;;;;2081755;28;20004;-70
2022/01/26 02:05:04;;;;;;;;;;;5.50;99.90;;;;;;2081477;28;19920;-70
2022/01/26 02:06:04;;;;;;;;;;;5.50;99.90;;;;;;2081878;28;19936;-70
2022/01/26 02:07:05;;;;;;;;;;;5.50;99.90;;;;;;2081704;28;19960;-70
2022/01/26 02:08:05;;;;;;;;;;;5.50;99.90;;;;;;2081456;28;19939;-70
2022/01/26 02:09:06;;;;;;;;;;;5.50;99.90;;;;;;2080769;28;19975;-69
2022/01/26 02:10:07;;;;;;;;;;;5.50;99.90;;;;;;2079974;28;20001;-69
2022/01/26 02:11:10;;;;;;;;;;;5.50;99.90;;;;;;2081797;28;20000;-69
2022/01/26 02:12:16;;;;;;;;;;;5.50;99.90;;;;;;2081688;28;20293;-70
2022/01/26 02:13:27;;;;;;;;;;;5.50;99.90;;;;;;2081500;28;19910;-70
2022/01/26 02:14:36;;;;;;;;;;;5.50;99.90;;;;;;2081725;28;19996;-70
2022/01/26 02:15:45;;;;;;;;;;;5.50;99.90;;;;;;2078411;28;19936;-70
2022/01/26 02:17:03;;;;;;;;;;;5.50;99.90;;;;;;2079090;28;19921;-70
2022/01/26 02:20:39;;;;;;;;;;;5.60;99.90;;;;;;2080203;28;20381;-70
2022/01/26 02:21:58;;;;;;;;;;;5.50;99.90;;;;;;2081471;28;19913;-70
2022/01/26 02:55:56;;;;;;;;;;;5.30;99.90;;;;;;2081013;28;19981;-69
2022/01/26 03:02:49;;;;;;;;;;;5.30;99.90;;;;;;2061566;28;19914;-70
2022/01/26 03:03:51;;;;;;;;;;;5.30;99.90;;;;;;2067262;28;19961;-70
2022/01/26 03:04:55;;;;;;;;;;;5.30;99.90;;;;;;2076746;28;19916;-70
2022/01/26 03:06:10;;;;;;;;;;;5.30;99.90;;;;;;2082815;28;20023;-70
2022/01/26 03:07:21;;;;;;;;;;;5.30;99.90;;;;;;2082994;28;19913;-70
2022/01/26 03:08:30;;;;;;;;;;;5.30;99.90;;;;;;2083139;28;19936;-70
2022/01/26 03:09:36;;;;;;;;;;;5.30;99.90;;;;;;2082745;28;19920;-69
2022/01/26 03:10:47;;;;;;;;;;;5.30;99.90;;;;;;2081740;28;19909;-70
2022/01/26 03:11:48;;;;;;;;;;;5.30;99.90;;;;;;2078544;28;19913;-70
2022/01/26 03:12:55;;;;;;;;;;;5.30;99.90;;;;;;2083109;28;19913;-70
2022/01/26 03:14:05;;;;;;;;;;;5.30;99.90;;;;;;2081484;28;19921;-70
2022/01/26 03:15:15;;;;;;;;;;;5.40;99.90;;;;;;2082906;28;19917;-70
2022/01/26 03:16:26;;;;;;;;;;;5.30;99.90;;;;;;2078783;28;19968;-70
2022/01/26 03:17:56;;;;;;;;;;;5.30;99.90;;;;;;2083122;28;20356;-70
2022/01/26 03:19:02;;;;;;;;;;;5.30;99.90;;;;;;2082916;28;19917;-70
2022/01/26 03:20:08;;;;;;;;;;;5.30;99.90;;;;;;2082565;28;19939;-70
2022/01/26 03:21:11;;;;;;;;;;;5.30;99.90;;;;;;2083089;28;19971;-70
2022/01/26 03:28:45;;;;;;;;;;;5.30;99.90;;;;;;2082417;28;19909;-69
2022/01/26 03:30:06;;;;;;;;;;;5.30;99.90;;;;;;2081662;28;20361;-69
2022/01/26 03:33:52;;;;;;;;;;;5.30;99.90;;;;;;2081055;28;19909;-69
2022/01/26 03:34:56;;;;;;;;;;;5.20;99.90;;;;;;2085041;28;20007;-69
2022/01/26 03:35:59;;;;;;;;;;;5.20;99.90;;;;;;2079729;28;19917;-69
2022/01/26 03:37:05;;;;;;;;;;;5.20;99.90;;;;;;2082623;28;20377;-70
2022/01/26 03:38:07;;;;;;;;;;;5.20;99.90;;;;;;2082589;28;19936;-70
2022/01/26 03:39:09;;;;;;;;;;;5.20;99.90;;;;;;2078001;28;20277;-70
2022/01/26 03:40:14;;;;;;;;;;;5.20;99.90;;;;;;2082856;28;19920;-70
2022/01/26 03:41:29;;;;;;;;;;;5.20;99.90;;;;;;2082598;28;20329;-70
2022/01/26 03:42:30;;;;;;;;;;;5.20;99.90;;;;;;2080971;28;19928;-70
2022/01/26 03:43:30;;;;;;;;;;;5.20;99.90;;;;;;2082632;28;19924;-70
2022/01/26 03:44:31;;;;;;;;;;;5.20;99.90;;;;;;2081112;28;20276;-70
2022/01/26 03:45:32;;;;;;;;;;;5.20;99.90;;;;;;2082915;28;19909;-69
2022/01/26 03:46:33;;;;;;;;;;;5.20;99.90;;;;;;2082724;28;19909;-70
2022/01/26 03:47:33;;;;;;;;;;;5.20;99.90;;;;;;2082832;28;19910;-70
2022/01/26 03:48:34;;;;;;;;;;;5.20;99.90;;;;;;2082573;28;19910;-70
2022/01/26 03:49:35;;;;;;;;;;;5.20;99.90;;;;;;2081374;28;19967;-69
2022/01/26 03:50:35;;;;;;;;;;;5.20;99.90;;;;;;2082823;28;19913;-70
2022/01/26 03:51:36;;;;;;;;;;;5.20;99.90;;;;;;2080917;28;19917;-70
2022/01/26 03:52:36;;;;;;;;;;;5.20;99.90;;;;;;2082826;28;19909;-69
2022/01/26 03:53:37;;;;;;;;;;;5.20;99.90;;;;;;2082568;28;19909;-69
2022/01/26 03:54:38;;;;;;;;;;;5.10;99.90;;;;;;2081098;28;19979;-70
2022/01/26 03:55:38;;;;;;;;;;;5.10;99.90;;;;;;2082573;28;19913;-70
2022/01/26 03:56:39;;;;;;;;;;;5.10;99.90;;;;;;2082773;28;19913;-69
2022/01/26 03:57:39;;;;;;;;;;;5.10;99.90;;;;;;2082614;28;19945;-70
2022/01/26 03:58:40;;;;;;;;;;;5.10;99.90;;;;;;2082730;28;20363;-69
2022/01/26 03:59:40;;;;;;;;;;;5.10;99.90;;;;;;2082408;28;19913;-70
2022/01/26 04:00:41;;;;;;;;;;;5.20;99.90;;;;;;2082652;28;20372;-70
2022/01/26 04:01:41;;;;;;;;;;;5.10;99.90;;;;;;2082539;28;20273;-69
2022/01/26 04:02:42;;;;;;;;;;;5.10;99.90;;;;;;2082584;28;19913;-69
2022/01/26 04:03:42;;;;;;;;;;;5.10;99.90;;;;;;2081522;28;20000;-69
2022/01/26 04:04:49;;;;;;;;;;;5.10;99.90;;;;;;2080888;28;19913;-69
2022/01/26 04:05:49;;;;;;;;;;;5.10;99.90;;;;;;2080071;28;19997;-69
2022/01/26 04:06:50;;;;;;;;;;;5.10;99.90;;;;;;2077110;28;19988;-69
2022/01/26 04:07:55;;;;;;;;;;;5.10;99.90;;;;;;2075792;28;19949;-70
2022/01/26 04:08:56;;;;;;;;;;;5.10;99.90;;;;;;2080160;28;19913;-69
2022/01/26 04:10:05;;;;;;;;;;;5.10;99.90;;;;;;2080389;28;19914;-69
2022/01/26 04:12:15;;;;;;;;;;;5.10;99.90;;;;;;2081107;28;19953;-69
2022/01/26 04:13:15;;;;;;;;;;;5.10;99.90;;;;;;2081045;28;20361;-69
2022/01/26 04:14:18;;;;;;;;;;;5.10;99.90;;;;;;2079366;28;19996;-69
2022/01/26 04:15:27;;;;;;;;;;;5.00;99.90;;;;;;2081516;28;19967;-69
2022/01/26 04:16:28;;;;;;;;;;;5.00;99.90;;;;;;2080956;28;19913;-69
2022/01/26 04:17:28;;;;;;;;;;;5.00;99.90;;;;;;2081001;28;19909;-69
2022/01/26 04:18:38;;;;;;;;;;;5.00;99.90;;;;;;2080848;28;19909;-70
2022/01/26 04:19:40;;;;;;;;;;;5.00;99.90;;;;;;2077210;28;19966;-69
2022/01/26 04:20:45;;;;;;;;;;;5.00;99.90;;;;;;2081183;28;20867;-69
2022/01/26 04:22:01;;;;;;;;;;;5.00;99.90;;;;;;2079817;28;19953;-69
2022/01/26 04:23:11;;;;;;;;;;;5.00;99.90;;;;;;2080971;28;19917;-70
2022/01/26 04:24:21;;;;;;;;;;;5.00;99.90;;;;;;2079281;28;19924;-69
2022/01/26 04:25:24;;;;;;;;;;;5.00;99.90;;;;;;2073135;28;19956;-69
2022/01/26 04:26:42;;;;;;;;;;;5.00;99.90;;;;;;2073203;28;19914;-70
2022/01/26 04:27:47;;;;;;;;;;;5.00;99.90;;;;;;2073976;28;19914;-69
2022/01/26 04:28:56;;;;;;;;;;;5.00;99.90;;;;;;2080626;28;19909;-69
2022/01/26 04:29:56;;;;;;;;;;;4.90;99.90;;;;;;2077889;28;19917;-69
2022/01/26 04:30:57;;;;;;;;;;;4.90;99.90;;;;;;2080906;28;20002;-70
2022/01/26 04:31:59;;;;;;;;;;;4.90;99.90;;;;;;2080278;28;19916;-69
2022/01/26 04:33:03;;;;;;;;;;;5.00;99.90;;;;;;2080661;28;19913;-69
2022/01/26 04:34:04;;;;;;;;;;;5.00;99.90;;;;;;2080398;28;19916;-69
2022/01/26 04:35:06;;;;;;;;;;;4.90;99.90;;;;;;2080904;28;19923;-70
2022/01/26 04:36:10;;;;;;;;;;;4.90;99.90;;;;;;2081207;28;20611;-70
2022/01/26 04:38:28;;;;;;;;;;;5.00;99.90;;;;;;2081189;28;20346;-70
2022/01/26 04:39:37;;;;;;;;;;;5.00;99.90;;;;;;2079037;28;19909;-69
2022/01/26 04:40:45;;;;;;;;;;;5.00;99.90;;;;;;2074356;28;19913;-69
2022/01/26 04:42:13;;;;;;;;;;;5.00;99.90;;;;;;2080947;28;19921;-69
2022/01/26 04:43:14;;;;;;;;;;;5.00;99.90;;;;;;2071104;28;19979;-69
2022/01/26 04:44:24;;;;;;;;;;;5.00;99.90;;;;;;2076538;28;19917;-69
2022/01/26 04:45:24;;;;;;;;;;;5.00;99.90;;;;;;2078255;28;19924;-70
2022/01/26 04:46:26;;;;;;;;;;;5.00;99.90;;;;;;2080655;28;20016;-69
2022/01/26 04:47:26;;;;;;;;;;;5.00;99.90;;;;;;2078196;28;19920;-69
2022/01/26 04:48:27;;;;;;;;;;;5.00;99.90;;;;;;2080565;28;19923;-69
2022/01/26 04:49:28;;;;;;;;;;;4.90;99.90;;;;;;2080013;28;20372;-69
2022/01/26 04:50:28;;;;;;;;;;;4.90;99.90;;;;;;2080268;28;20365;-69
2022/01/26 04:51:28;;;;;;;;;;;4.90;99.90;;;;;;2080854;28;19912;-69
2022/01/26 04:52:29;;;;;;;;;;;4.90;99.90;;;;;;2080548;28;19943;-69
2022/01/26 04:53:29;;;;;;;;;;;4.90;99.90;;;;;;2079305;28;19913;-70
2022/01/26 04:54:30;;;;;;;;;;;4.90;99.90;;;;;;2081226;28;19968;-69
2022/01/26 04:55:30;;;;;;;;;;;4.80;99.90;;;;;;2080344;28;19920;-69
2022/01/26 04:56:31;;;;;;;;;;;4.90;99.90;;;;;;2080885;28;19920;-70
2022/01/26 04:57:31;;;;;;;;;;;4.80;99.90;;;;;;2080444;28;19912;-69
2022/01/26 04:58:32;;;;;;;;;;;4.80;99.90;;;;;;2080989;28;19915;-70
2022/01/26 04:59:33;;;;;;;;;;;4.90;99.90;;;;;;2080495;28;20627;-69
2022/01/26 05:00:33;;;;;;;;;;;4.90;99.90;;;;;;2080243;28;19983;-69
2022/01/26 05:01:34;;;;;;;;;;;4.80;99.90;;;;;;2080567;28;19909;-69
2022/01/26 05:02:34;;;;;;;;;;;4.80;99.90;;;;;;2079871;28;20376;-70
2022/01/26 05:03:35;;;;;;;;;;;4.80;99.90;;;;;;2074941;28;19925;-69
2022/01/26 05:04:35;;;;;;;;;;;4.80;99.90;;;;;;2073608;28;19921;-69
2022/01/26 05:05:36;;;;;;;;;;;4.80;99.90;;;;;;2078715;28;19920;-69
2022/01/26 05:06:36;;;;;;;;;;;4.80;99.90;;;;;;2080649;28;19913;-70
2022/01/26 05:07:37;;;;;;;;;;;4.80;99.90;;;;;;2080469;28;19909;-69
2022/01/26 05:08:37;;;;;;;;;;;4.80;99.90;;;;;;2079877;28;19913;-69
2022/01/26 05:09:39;;;;;;;;;;;4.80;99.90;;;;;;2074264;28;20124;-70
2022/01/26 05:10:43;;;;;;;;;;;4.80;99.90;;;;;;2079918;28;19917;-69
2022/01/26 05:11:46;;;;;;;;;;;4.90;99.90;;;;;;2080849;28;19993;-69
2022/01/26 05:12:47;;;;;;;;;;;4.90;99.90;;;;;;2080364;28;19923;-69
2022/01/26 05:13:48;;;;;;;;;;;4.80;99.90;;;;;;2079980;28;19924;-69
2022/01/26 05:14:49;;;;;;;;;;;4.80;99.90;;;;;;2080034;28;19945;-69
2022/01/26 05:15:50;;;;;;;;;;;4.80;99.90;;;;;;2080457;28;19913;-69
2022/01/26 05:16:50;;;;;;;;;;;4.90;99.90;;;;;;2080689;28;19966;-69
2022/01/26 05:17:51;;;;;;;;;;;4.90;99.90;;;;;;2080722;28;20003;-70
2022/01/26 05:18:53;;;;;;;;;;;4.90;99.90;;;;;;2080443;28;19924;-69
2022/01/26 05:19:57;;;;;;;;;;;4.80;99.90;;;;;;2075155;28;19936;-69
2022/01/26 05:20:57;;;;;;;;;;;4.80;99.90;;;;;;2080387;28;19913;-69
2022/01/26 05:21:58;;;;;;;;;;;4.80;99.90;;;;;;2080362;28;20359;-69
2022/01/26 05:22:59;;;;;;;;;;;4.80;99.90;;;;;;2080461;28;19940;-69
2022/01/26 05:23:59;;;;;;;;;;;4.80;99.90;;;;;;2080226;28;19909;-69
2022/01/26 05:25:00;;;;;;;;;;;4.80;99.90;;;;;;2076008;28;20269;-69
2022/01/26 05:26:00;;;;;;;;;;;4.80;99.90;;;;;;2077082;28;19910;-69
2022/01/26 05:27:01;;;;;;;;;;;4.80;99.90;;;;;;2078893;28;20019;-69
2022/01/26 05:28:01;;;;;;;;;;;4.80;99.90;;;;;;2074606;28;20258;-69
2022/01/26 05:29:02;;;;;;;;;;;4.80;99.90;;;;;;2079671;28;19917;-69
2022/01/26 05:30:03;;;;;;;;;;;4.80;99.90;;;;;;2087043;28;19999;-69
2022/01/26 05:31:03;;;;;;;;;;;4.80;99.90;;;;;;2086315;28;19920;-69
2022/01/26 05:32:04;;;;;;;;;;;4.80;99.90;;;;;;2079931;28;20326;-69
2022/01/26 05:33:04;;;;;;;;;;;4.70;99.90;;;;;;2079934;28;19917;-70
2022/01/26 05:34:06;;;;;;;;;;;4.70;99.90;;;;;;2084884;28;19913;-69
2022/01/26 05:35:07;;;;;;;;;;;4.80;99.90;;;;;;2087955;28;20277;-69
2022/01/26 05:36:08;;;;;;;;;;;4.70;99.90;;;;;;2080899;28;19909;-70
2022/01/26 05:37:08;;;;;;;;;;;4.70;99.90;;;;;;2078025;28;19909;-69
2022/01/26 05:38:09;;;;;;;;;;;4.70;99.90;;;;;;2078426;28;19914;-69
2022/01/26 05:39:09;;;;;;;;;;;4.70;99.90;;;;;;2076582;28;20277;-70
2022/01/26 05:40:11;;;;;;;;;;;4.70;99.90;;;;;;2078324;28;20395;-70
2022/01/26 05:41:11;;;;;;;;;;;4.70;99.90;;;;;;2078980;28;19920;-70
2022/01/26 05:42:12;;;;;;;;;;;4.70;99.90;;;;;;2079431;28;20697;-69
2022/01/26 05:43:15;;;;;;;;;;;4.70;99.90;;;;;;2077255;28;19945;-69
2022/01/26 05:44:15;;;;;;;;;;;4.70;99.90;;;;;;2078496;28;19917;-69
2022/01/26 05:45:37;;;;;;;;;;;4.70;99.90;;;;;;2080197;28;20562;-70
2022/01/26 05:46:42;;;;;;;;;;;4.70;99.90;;;;;;2077632;28;19909;-70
2022/01/26 05:47:43;;;;;;;;;;;4.70;99.90;;;;;;2079813;28;19963;-69
2022/01/26 05:48:45;;;;;;;;;;;4.70;99.90;;;;;;2075271;28;19948;-69
2022/01/26 05:49:46;;;;;;;;;;;4.70;99.90;;;;;;2075897;28;20590;-69
2022/01/26 05:50:52;;;;;;;;;;;4.70;99.90;;;;;;2076999;28;20458;-69
2022/01/26 05:51:53;;;;;;;;;;;4.70;99.90;;;;;;2079347;28;19913;-69
2022/01/26 05:52:53;;;;;;;;;;;4.70;99.90;;;;;;2079330;28;19913;-69
2022/01/26 05:53:54;;;;;;;;;;;4.70;99.90;;;;;;2079392;28;19913;-69
2022/01/26 05:54:54;;;;;;;;;;;4.70;99.90;;;;;;2080024;28;20042;-69
2022/01/26 05:55:55;;;;;;;;;;;4.70;99.90;;;;;;2079666;28;20349;-69
2022/01/26 05:56:55;;;;;;;;;;;4.70;99.90;;;;;;2080025;28;19999;-69
2022/01/26 05:57:56;;;;;;;;;;;4.70;99.90;;;;;;2076964;28;19960;-69
2022/01/26 05:58:57;;;;;;;;;;;4.70;99.90;;;;;;2073521;28;19955;-69
2022/01/26 05:59:58;;;;;;;;;;;4.70;99.90;;;;;;2074724;28;19963;-70
2022/01/26 06:01:00;;;;;;;;;;;4.70;99.90;;;;;;2074481;28;19910;-69
2022/01/26 06:02:00;;;;;;;;;;;4.70;99.90;;;;;;2073952;28;20463;-69
2022/01/26 06:03:01;;;;;;;;;;;4.70;99.90;;;;;;2077309;28;20498;-70
2022/01/26 06:04:02;;;;;;;;;;;4.60;99.90;;;;;;2077260;28;19909;-69
2022/01/26 06:05:03;;;;;;;;;;;4.60;99.90;;;;;;2074201;28;19986;-69
2022/01/26 06:06:03;;;;;;;;;;;4.60;99.90;;;;;;2073414;28;19914;-69
2022/01/26 06:07:04;;;;;;;;;;;4.60;99.90;;;;;;2075587;28;19959;-69
2022/01/26 06:08:05;;;;;;;;;;;4.60;99.90;;;;;;2073632;28;19914;-70
2022/01/26 06:09:05;;;;;;;;;;;4.60;99.90;;;;;;2074242;28;19931;-69
2022/01/26 06:10:06;;;;;;;;;;;4.60;99.90;;;;;;2075113;28;19918;-69
2022/01/26 06:11:06;;;;;;;;;;;4.60;99.90;;;;;;2085120;28;20373;-69
2022/01/26 06:12:07;;;;;;;;;;;4.70;99.90;;;;;;2083032;28;19909;-69
2022/01/26 06:13:08;;;;;;;;;;;4.60;99.90;;;;;;2075106;28;20366;-69
2022/01/26 06:14:08;;;;;;;;;;;4.60;99.90;;;;;;2078378;28;19956;-69
2022/01/26 06:15:09;;;;;;;;;;;4.70;99.90;;;;;;2075747;28;20672;-69
2022/01/26 06:16:09;;;;;;;;;;;4.70;99.90;;;;;;2074235;28;19933;-69
2022/01/26 06:17:09;;;;;;;;;;;4.70;99.90;;;;;;2076329;28;19960;-69
2022/01/26 06:18:10;;;;;;;;;;;4.70;99.90;;;;;;2075459;28;19921;-69
2022/01/26 06:19:11;;;;;;;;;;;4.70;99.90;;;;;;2074338;28;19918;-69
2022/01/26 06:20:11;;;;;;;;;;;4.70;99.90;;;;;;2075110;28;20498;-69
2022/01/26 06:21:12;;;;;;;;;;;4.70;99.90;;;;;;2071548;28;19909;-70
2022/01/26 06:22:12;;;;;;;;;;;4.70;99.90;;;;;;2071755;28;19909;-69
2022/01/26 06:23:13;;;;;;;;;;;4.70;99.90;;;;;;2075397;28;19921;-69
2022/01/26 06:24:13;;;;;;;;;;;4.70;99.90;;;;;;2075270;28;19996;-69
2022/01/26 06:25:15;;;;;;;;;;;4.70;99.90;;;;;;2073388;28;19910;-69
2022/01/26 06:26:15;;;;;;;;;;;4.70;99.90;;;;;;2076303;28;19917;-69
2022/01/26 06:27:16;;;;;;;;;;;4.70;99.90;;;;;;2076054;28;19929;-69
2022/01/26 06:28:16;;;;;;;;;;;4.70;99.90;;;;;;2079267;28;20004;-70
2022/01/26 06:29:17;;;;;;;;;;;4.70;99.90;;;;;;2078956;28;20734;-69
2022/01/26 06:30:18;;;;;;;;;;;4.70;99.90;;;;;;2073056;28;19909;-69
2022/01/26 06:31:19;;;;;;;;;;;4.70;99.90;;;;;;2075918;28;20376;-70
2022/01/26 06:32:20;;;;;;;;;;;4.70;99.90;;;;;;2075544;28;19921;-69
2022/01/26 06:33:21;;;;;;;;;;;4.70;99.90;;;;;;2077055;28;20425;-69
2022/01/26 06:34:22;;;;;;;;;;;4.70;99.90;;;;;;2076101;28;20447;-69
2022/01/26 06:35:23;;;;;;;;;;;4.70;99.90;;;;;;2074749;28;20297;-69
2022/01/26 06:36:23;;;;;;;;;;;4.70;99.90;;;;;;2074266;28;19914;-69
2022/01/26 06:37:24;;;;;;;;;;;4.70;99.90;;;;;;2073726;28;19910;-69
2022/01/26 06:38:25;;;;;;;;;;;4.70;99.90;;;;;;2076007;28;20003;-70
2022/01/26 06:39:26;;;;;;;;;;;4.70;99.90;;;;;;2080299;28;19913;-70
2022/01/26 06:40:26;;;;;;;;;;;4.60;99.90;;;;;;2078529;28;19964;-70
2022/01/26 06:41:27;;;;;;;;;;;4.70;99.90;;;;;;2076396;28;19914;-70
2022/01/26 06:42:34;;;;;;;;;;;4.70;99.90;;;;;;2076865;28;20265;-70
2022/01/26 06:43:35;;;;;;;;;;;4.70;99.90;;;;;;2077378;28;19913;-71
2022/01/26 06:44:46;;;;;;;;;;;4.70;99.90;;;;;;2077468;28;19913;-69
2022/01/26 06:45:51;;;;;;;;;;;4.70;99.90;;;;;;2075438;28;19924;-69
2022/01/26 06:47:13;;;;;;;;;;;4.70;99.90;;;;;;2075230;28;19925;-69
2022/01/26 06:49:29;;;;;;;;;;;4.70;99.90;;;;;;2079431;28;20026;-69
2022/01/26 06:50:29;;;;;;;;;;;4.70;99.90;;;;;;2079845;28;19955;-69
2022/01/26 06:51:30;;;;;;;;;;;4.70;99.90;;;;;;2078531;28;19967;-70
2022/01/26 06:52:30;;;;;;;;;;;4.60;99.90;;;;;;2081552;28;19909;-69
2022/01/26 06:53:31;;;;;;;;;;;4.60;99.90;;;;;;2078219;28;19909;-70
2022/01/26 06:54:31;;;;;;;;;;;4.60;99.90;;;;;;2082357;28;19918;-69
2022/01/26 06:55:32;;;;;;;;;;;4.60;99.90;;;;;;2081763;28;21416;-69
2022/01/26 06:56:32;;;;;;;;;;;4.60;99.90;;;;;;2081120;28;19917;-70
2022/01/26 06:57:33;;;;;;;;;;;4.60;99.90;;;;;;2081067;28;19913;-69
2022/01/26 06:58:33;;;;;;;;;;;4.60;99.90;;;;;;2080271;28;20338;-70
2022/01/26 06:59:34;;;;;;;;;;;4.60;99.90;;;;;;2080756;28;19979;-69
2022/01/26 07:00:34;;;;;;;;;;;4.60;99.90;;;;;;2079981;28;19948;-69
2022/01/26 07:01:35;;;;;;;;;;;4.50;99.90;;;;;;2077302;28;19919;-69
2022/01/26 07:02:39;;;;;;;;;;;4.50;99.90;;;;;;2078553;28;20097;-69
2022/01/26 07:03:39;;;;;;;;;;;4.60;99.90;;;;;;2079939;28;19917;-70
2022/01/26 07:04:40;;;;;;;;;;;4.50;99.90;;;;;;2076328;28;20413;-69
2022/01/26 07:05:41;;;;;;;;;;;4.50;99.90;;;;;;2079724;28;19917;-69
2022/01/26 07:06:41;;;;;;;;;;;4.50;99.90;;;;;;2081054;28;19910;-69
2022/01/26 07:07:41;;;;;;;;;;;4.50;99.90;;;;;;2080940;28;19913;-69
2022/01/26 07:08:45;;;;;;;;;;;4.50;99.90;;;;;;2080327;28;22459;-69
2022/01/26 07:09:46;;;;;;;;;;;4.50;99.90;;;;;;2081096;28;20393;-70
2022/01/26 07:10:49;;;;;;;;;;;4.50;99.90;;;;;;2077325;28;20348;-69
2022/01/26 07:11:50;;;;;;;;;;;4.50;99.90;;;;;;2081441;28;20391;-69
2022/01/26 07:12:50;;;;;;;;;;;4.50;99.90;;;;;;2081330;28;20279;-69
2022/01/26 07:13:57;;;;;;;;;;;4.50;99.90;;;;;;2079966;28;19913;-69
2022/01/26 07:21:00;;;;;;;;;;;4.50;99.90;;;;;;2080829;28;19917;-69
2022/01/26 07:21:35;;;;;;;;;;;4.50;99.90;;;;;;2073147;28;19949;-69
2022/01/26 07:22:36;;;;;;;;;;;4.50;99.90;;;;;;2078079;28;19916;-71
2022/01/26 07:23:36;;;;;;;;;;;4.50;99.90;;;;;;2081525;28;20694;-70
2022/01/26 07:24:36;;;;;;;;;;;4.50;99.90;;;;;;2081469;28;19916;-69
2022/01/26 07:25:37;;;;;;;;;;;4.50;99.90;;;;;;2080692;28;19924;-70
2022/01/26 07:26:38;;;;;;;;;;;4.50;99.90;;;;;;2080890;28;20357;-69
2022/01/26 07:27:38;;;;;;;;;;;4.50;99.90;;;;;;2077805;28;19916;-70
2022/01/26 07:28:40;;;;;;;;;;;4.50;99.90;;;;;;2081714;28;19913;-69
2022/01/26 07:29:40;;;;;;;;;;;4.50;99.90;;;;;;2081402;28;19913;-69
2022/01/26 07:30:41;;;;;;;;;;;4.50;99.90;;;;;;2080841;28;20381;-69
2022/01/26 07:31:47;;;;;;;;;;;4.50;99.90;;;;;;2080848;28;19913;-69
2022/01/26 07:32:47;;;;;;;;;;;4.50;99.90;;;;;;2078020;28;19956;-69
2022/01/26 07:33:53;;;;;;;;;;;4.50;99.90;;;;;;2081365;28;20059;-69
2022/01/26 07:34:53;;;;;;;;;;;4.50;99.90;;;;;;2081881;28;19913;-69
2022/01/26 07:35:54;;;;;;;;;;;4.50;99.90;;;;;;2081316;28;19959;-69
2022/01/26 07:37:00;;;;;;;;;;;4.60;99.90;;;;;;2079276;28;19913;-69
2022/01/26 07:38:02;;;;;;;;;;;4.50;99.90;;;;;;2085752;28;20421;-69